Time;durP1;ratioP1;P1;durP2;ratioP2;P2;SDS_P1;SDS_P2;PMS_P1;PMS_P2;Temp;Humidity;BMP_temperature;BMP_pressure;BME280_temperature;BME280_humidity;BME280_pressure;Samples;Min_cycle;Max_cycle;Signal;HPM_P1;HPM_P2
2023/06/20 00:01:54;;;;;;;2.03;1.10;;;22.80;54.10;;;;;;5011649;28;20048;-79
2023/06/20 00:04:21;;;;;;;2.58;1.02;;;22.80;54.20;;;;;;5002771;28;20398;-87
2023/06/20 00:06:48;;;;;;;2.47;1.20;;;22.70;54.20;;;;;;4995075;28;20057;-88
2023/06/20 00:09:15;;;;;;;2.53;1.40;;;22.70;54.30;;;;;;5007713;28;20049;-79
2023/06/20 00:11:42;;;;;;;3.17;1.50;;;22.70;54.40;;;;;;4998632;28;20490;-79
2023/06/20 00:14:12;;;;;;;3.40;1.77;;;22.60;54.40;;;;;;4979529;28;20103;-79
2023/06/20 00:16:39;;;;;;;3.15;1.30;;;22.60;54.60;;;;;;5002271;28;20499;-79
2023/06/20 00:19:06;;;;;;;2.63;1.02;;;22.60;54.70;;;;;;5002406;28;20100;-79
2023/06/20 00:21:34;;;;;;;2.15;1.10;;;22.60;54.70;;;;;;5025101;28;20053;-78
2023/06/20 00:24:02;;;;;;;4.55;1.15;;;22.50;54.70;;;;;;5028589;28;20059;-79
2023/06/20 00:26:29;;;;;;;2.83;1.17;;;22.50;54.70;;;;;;5016112;28;20107;-79
2023/06/20 00:28:56;;;;;;;2.60;1.20;;;22.60;54.80;;;;;;5010851;28;20044;-87
2023/06/20 00:31:23;;;;;;;2.78;1.45;;;22.60;54.70;;;;;;5007059;28;20041;-87
2023/06/20 00:33:50;;;;;;;2.10;1.10;;;22.50;54.80;;;;;;5019354;28;20034;-87
2023/06/20 00:36:18;;;;;;;2.63;1.42;;;22.50;54.90;;;;;;5019246;28;20042;-87
2023/06/20 00:38:48;;;;;;;4.10;1.70;;;22.50;54.90;;;;;;5002817;28;20482;-88
2023/06/20 00:41:17;;;;;;;2.63;1.40;;;22.50;54.90;;;;;;5003600;28;20080;-87
2023/06/20 00:43:45;;;;;;;3.35;1.70;;;22.50;54.90;;;;;;5000383;28;20132;-87
2023/06/20 00:46:17;;;;;;;3.08;1.45;;;22.50;54.90;;;;;;5002405;28;20132;-87
2023/06/20 00:48:46;;;;;;;3.05;1.42;;;22.50;54.90;;;;;;5002634;28;20567;-87
2023/06/20 00:51:15;;;;;;;2.67;1.30;;;22.50;54.90;;;;;;5002153;28;20041;-88
2023/06/20 00:53:43;;;;;;;2.83;1.30;;;22.50;55.00;;;;;;5001349;28;20054;-86
2023/06/20 00:56:11;;;;;;;3.03;1.80;;;22.40;54.90;;;;;;5021478;28;20044;-87
2023/06/20 00:58:38;;;;;;;2.92;1.15;;;22.40;54.90;;;;;;4990568;28;20077;-87
2023/06/20 01:01:06;;;;;;;2.80;1.23;;;22.50;54.90;;;;;;5000603;28;20141;-88
2023/06/20 01:03:36;;;;;;;3.47;1.50;;;22.50;54.90;;;;;;4998776;28;20108;-87
2023/06/20 01:06:10;;;;;;;3.28;1.88;;;22.40;55.00;;;;;;5014228;28;20058;-87
2023/06/20 01:09:01;;;;;;;3.00;1.33;;;22.50;54.90;;;;;;5002147;28;20081;-86
2023/06/20 01:11:31;;;;;;;3.17;1.55;;;22.50;54.90;;;;;;4982479;28;20144;-87
2023/06/20 01:14:25;;;;;;;2.85;1.45;;;22.40;54.90;;;;;;5013304;28;20052;-87
2023/06/20 01:16:57;;;;;;;2.90;1.30;;;22.40;54.90;;;;;;5005109;28;20149;-87
2023/06/20 01:19:43;;;;;;;;;;;22.40;55.00;;;;;;5015845;28;20045;-88
2023/06/20 01:22:38;;;;;;;2.78;1.52;;;22.30;55.00;;;;;;5030871;28;19924;-87
2023/06/20 01:25:10;;;;;;;2.72;1.48;;;22.40;55.10;;;;;;5010096;28;20133;-87
2023/06/20 01:27:49;;;;;;;2.78;1.08;;;22.40;55.70;;;;;;5008770;28;20061;-86
2023/06/20 01:30:30;;;;;;;2.40;1.27;;;22.40;55.10;;;;;;4998346;28;20052;-87
2023/06/20 01:33:02;;;;;;;2.72;1.15;;;22.40;55.10;;;;;;4998023;28;20161;-88
2023/06/20 01:35:30;;;;;;;3.90;1.20;;;22.30;55.10;;;;;;4982212;28;20049;-87
2023/06/20 01:38:02;;;;;;;3.25;1.52;;;22.40;55.10;;;;;;5016237;28;20057;-88
2023/06/20 01:40:32;;;;;;;3.03;1.60;;;22.40;55.10;;;;;;5001427;28;20047;-87
2023/06/20 01:43:03;;;;;;;3.30;1.65;;;22.30;55.20;;;;;;5029979;28;20045;-87
2023/06/20 01:45:35;;;;;;;2.40;1.50;;;22.30;55.20;;;;;;5005267;28;20064;-87
2023/06/20 01:48:05;;;;;;;3.38;2.00;;;22.30;55.20;;;;;;5017503;28;20080;-88
2023/06/20 01:50:33;;;;;;;3.83;1.90;;;22.30;55.30;;;;;;4997514;28;20498;-88
2023/06/20 01:53:02;;;;;;;2.40;1.20;;;22.30;55.30;;;;;;4981424;28;20045;-87
2023/06/20 01:55:32;;;;;;;3.25;1.63;;;22.30;55.30;;;;;;4981714;28;20046;-87
2023/06/20 01:58:00;;;;;;;2.78;1.35;;;22.30;55.40;;;;;;5014489;28;20050;-87
2023/06/20 02:00:29;;;;;;;2.80;1.67;;;22.30;56.00;;;;;;4995119;28;20048;-87
2023/06/20 02:02:58;;;;;;;2.67;1.50;;;22.30;55.50;;;;;;5001729;28;20051;-87
2023/06/20 02:05:28;;;;;;;2.95;1.38;;;22.30;55.50;;;;;;4992308;28;20067;-88
2023/06/20 02:07:57;;;;;;;3.17;1.50;;;22.30;55.50;;;;;;5036531;28;20045;-80
2023/06/20 02:10:25;;;;;;;2.80;1.60;;;22.20;55.50;;;;;;5008765;28;20045;-80
2023/06/20 02:12:55;;;;;;;3.28;1.73;;;22.20;55.60;;;;;;4985968;28;20513;-79
2023/06/20 02:15:24;;;;;;;4.00;1.67;;;22.20;55.70;;;;;;5000117;28;20038;-80
2023/06/20 02:17:51;;;;;;;3.08;1.80;;;22.20;55.70;;;;;;4994269;28;20053;-80
2023/06/20 02:20:19;;;;;;;4.10;1.80;;;22.20;55.80;;;;;;4999783;28;20053;-80
2023/06/20 02:22:48;;;;;;;3.20;1.60;;;22.20;55.80;;;;;;4996756;28;20046;-80
2023/06/20 02:25:20;;;;;;;2.53;1.40;;;22.20;55.90;;;;;;4996394;28;20038;-79
2023/06/20 02:27:50;;;;;;;3.35;1.67;;;22.20;55.90;;;;;;5010085;28;20045;-87
2023/06/20 02:30:21;;;;;;;2.80;1.40;;;22.20;56.00;;;;;;4981806;28;20054;-87
2023/06/20 02:32:49;;;;;;;2.75;1.50;;;22.10;56.00;;;;;;4997037;28;20053;-87
2023/06/20 02:35:19;;;;;;;3.08;1.52;;;22.10;56.10;;;;;;4994851;28;20052;-87
2023/06/20 02:37:48;;;;;;;4.47;1.88;;;22.10;56.10;;;;;;5025621;28;20063;-88
2023/06/20 02:40:15;;;;;;;3.35;1.67;;;22.10;56.20;;;;;;5014550;28;20098;-87
2023/06/20 02:42:43;;;;;;;3.28;1.48;;;22.10;56.20;;;;;;5000877;28;20124;-87
2023/06/20 02:45:12;;;;;;;3.25;1.70;;;22.10;56.20;;;;;;5000684;28;20049;-87
2023/06/20 02:47:47;;;;;;;2.92;1.65;;;22.10;56.20;;;;;;4981317;28;20042;-87
2023/06/20 02:50:49;;;;;;;3.38;1.85;;;22.10;56.30;;;;;;5018615;28;20058;-87
2023/06/20 02:53:35;;;;;;;;;;;22.10;56.40;;;;;;4985405;28;20100;-88
2023/06/20 02:56:08;;;;;;;3.30;2.17;;;22.00;56.40;;;;;;5027003;28;19960;-87
2023/06/20 02:58:41;;;;;;;3.08;1.58;;;22.00;56.50;;;;;;5019933;28;20147;-87
2023/06/20 03:01:09;;;;;;;3.63;1.75;;;22.00;56.60;;;;;;5019893;28;20049;-87
2023/06/20 03:03:44;;;;;;;3.33;1.75;;;22.10;56.70;;;;;;5001059;28;20045;-87
2023/06/20 03:06:15;;;;;;;3.35;2.00;;;22.00;56.60;;;;;;4994645;28;20064;-87
2023/06/20 03:08:44;;;;;;;2.95;1.70;;;22.10;56.70;;;;;;4996162;28;20470;-87
2023/06/20 03:11:11;;;;;;;2.55;1.42;;;22.10;56.70;;;;;;5016613;28;20053;-87
2023/06/20 03:13:41;;;;;;;2.88;1.40;;;22.10;56.70;;;;;;5006543;28;20038;-87
2023/06/20 03:16:09;;;;;;;3.55;1.88;;;22.10;56.80;;;;;;4996619;28;20489;-87
2023/06/20 03:18:37;;;;;;;4.72;1.92;;;22.10;56.80;;;;;;5007025;28;20132;-87
2023/06/20 03:21:05;;;;;;;3.72;2.10;;;22.10;56.90;;;;;;5019275;28;20523;-87
2023/06/20 03:23:52;;;;;;;3.53;2.08;;;22.10;57.00;;;;;;5015992;28;20050;-87
2023/06/20 03:26:19;;;;;;;3.90;2.00;;;22.10;57.00;;;;;;5006510;28;20106;-87
2023/06/20 03:28:46;;;;;;;3.10;1.67;;;22.10;57.00;;;;;;5018941;28;20041;-87
2023/06/20 03:31:13;;;;;;;3.55;1.88;;;22.10;57.00;;;;;;5017723;28;20084;-87
2023/06/20 03:33:40;;;;;;;2.50;1.60;;;22.00;57.00;;;;;;4977476;28;20061;-88
2023/06/20 03:36:09;;;;;;;3.50;1.95;;;22.10;57.10;;;;;;4980566;28;20061;-87
2023/06/20 03:38:39;;;;;;;3.45;1.85;;;22.10;57.20;;;;;;4979056;28;20208;-87
2023/06/20 03:41:06;;;;;;;3.45;1.90;;;22.10;57.30;;;;;;5020531;28;20049;-87
2023/06/20 03:43:33;;;;;;;3.53;1.95;;;22.10;57.30;;;;;;5005687;28;20037;-87
2023/06/20 03:46:00;;;;;;;3.90;2.35;;;22.10;57.40;;;;;;5002971;28;20053;-87
2023/06/20 03:48:27;;;;;;;4.05;2.20;;;22.10;57.40;;;;;;5014906;28;20077;-87
2023/06/20 03:50:56;;;;;;;3.85;2.42;;;22.00;57.40;;;;;;4988565;28;20404;-87
2023/06/20 03:53:23;;;;;;;3.58;1.73;;;22.00;57.40;;;;;;5008506;28;20079;-87
2023/06/20 03:55:51;;;;;;;2.90;1.63;;;22.00;57.50;;;;;;5016383;28;20044;-87
2023/06/20 03:58:18;;;;;;;3.65;1.73;;;22.00;57.60;;;;;;5014505;28;20523;-88
2023/06/20 04:00:46;;;;;;;4.72;2.75;;;22.00;57.60;;;;;;5002043;28;20041;-88
2023/06/20 04:03:13;;;;;;;3.65;1.90;;;22.00;58.30;;;;;;4996692;28;20076;-86
2023/06/20 04:05:41;;;;;;;3.28;1.92;;;22.00;57.80;;;;;;4992063;28;20054;-88
2023/06/20 04:08:09;;;;;;;3.35;2.08;;;22.00;57.80;;;;;;5006933;28;20049;-87
2023/06/20 04:10:37;;;;;;;3.30;2.03;;;22.00;57.80;;;;;;5003767;28;20038;-87
2023/06/20 04:13:05;;;;;;;3.92;2.55;;;22.00;57.90;;;;;;5005703;28;20042;-88
2023/06/20 04:15:33;;;;;;;3.85;2.33;;;22.00;58.00;;;;;;5004844;28;20052;-87
2023/06/20 04:18:01;;;;;;;3.90;2.55;;;22.00;58.00;;;;;;4999761;28;20067;-87
2023/06/20 04:20:29;;;;;;;3.75;1.95;;;22.00;58.00;;;;;;5006053;28;20057;-87
2023/06/20 04:22:57;;;;;;;3.55;2.15;;;22.00;58.00;;;;;;5022447;28;20149;-87
2023/06/20 04:25:24;;;;;;;3.00;1.98;;;22.00;58.00;;;;;;5008332;28;20077;-87
2023/06/20 04:27:56;;;;;;;3.03;1.80;;;22.00;58.10;;;;;;5022163;28;20041;-87
2023/06/20 04:30:33;;;;;;;3.45;2.35;;;22.00;58.10;;;;;;5001068;28;20133;-87
2023/06/20 04:33:04;;;;;;;3.35;1.98;;;22.00;58.20;;;;;;5013689;28;20056;-87
2023/06/20 04:35:35;;;;;;;2.60;1.70;;;22.00;58.20;;;;;;5003528;28;20046;-87
2023/06/20 04:38:04;;;;;;;4.47;2.20;;;22.00;58.30;;;;;;4987161;28;20049;-87
2023/06/20 04:40:31;;;;;;;3.65;2.05;;;22.00;58.30;;;;;;4989915;28;20406;-87
2023/06/20 04:43:01;;;;;;;3.45;1.80;;;22.00;58.40;;;;;;4995162;28;20057;-86
2023/06/20 04:45:29;;;;;;;4.55;2.45;;;22.00;58.40;;;;;;5000036;28;20050;-86
2023/06/20 04:48:00;;;;;;;3.13;1.83;;;22.00;58.50;;;;;;4998982;28;20088;-87
2023/06/20 04:50:27;;;;;;;3.25;2.13;;;22.00;58.50;;;;;;4966930;28;20041;-80
2023/06/20 04:52:56;;;;;;;4.40;2.75;;;22.00;58.60;;;;;;4994520;28;20053;-80
2023/06/20 04:55:23;;;;;;;3.25;2.10;;;22.00;58.70;;;;;;4991145;28;20046;-80
2023/06/20 04:57:51;;;;;;;4.22;2.65;;;22.00;58.70;;;;;;5000387;28;20053;-79
2023/06/20 05:00:18;;;;;;;3.03;2.33;;;22.10;58.80;;;;;;5005771;28;20049;-79
2023/06/20 05:02:46;;;;;;;3.88;2.30;;;22.00;58.70;;;;;;4995704;28;20065;-79
2023/06/20 05:05:13;;;;;;;4.80;3.15;;;22.10;58.70;;;;;;5021706;28;20682;-79
2023/06/20 05:07:42;;;;;;;4.00;2.47;;;22.10;58.70;;;;;;5003091;28;20109;-79
2023/06/20 05:10:09;;;;;;;3.75;2.63;;;22.10;58.70;;;;;;5009012;28;20418;-87
2023/06/20 05:12:36;;;;;;;4.80;2.70;;;22.10;58.70;;;;;;4982606;28;20048;-87
2023/06/20 05:15:04;;;;;;;3.65;2.75;;;22.20;58.60;;;;;;4982831;28;20046;-87
2023/06/20 05:17:31;;;;;;;5.07;2.78;;;22.20;58.70;;;;;;4995929;28;20041;-87
2023/06/20 05:20:05;;;;;;;4.32;2.78;;;22.20;58.70;;;;;;5004297;28;20057;-87
2023/06/20 05:22:33;;;;;;;4.45;2.55;;;22.30;58.80;;;;;;5003176;28;20048;-87
2023/06/20 05:25:01;;;;;;;4.45;3.03;;;22.30;58.80;;;;;;5025676;28;20402;-87
2023/06/20 05:27:28;;;;;;;4.40;2.70;;;22.30;58.80;;;;;;5024852;28;20128;-87
2023/06/20 05:29:55;;;;;;;4.75;2.67;;;22.30;58.70;;;;;;5017425;28;20041;-86
2023/06/20 05:32:22;;;;;;;3.08;2.10;;;22.40;58.70;;;;;;4977837;28;20040;-87
2023/06/20 05:34:49;;;;;;;4.00;2.53;;;22.40;58.70;;;;;;4990187;28;20351;-87
2023/06/20 05:37:16;;;;;;;5.63;3.03;;;22.50;58.70;;;;;;4998504;28;20084;-87
2023/06/20 05:39:44;;;;;;;4.32;2.65;;;22.50;58.70;;;;;;4984152;28;20095;-88
2023/06/20 05:42:11;;;;;;;4.15;2.70;;;22.50;58.80;;;;;;5021220;28;20059;-87
2023/06/20 05:44:38;;;;;;;4.05;3.00;;;22.50;58.80;;;;;;5029258;28;20065;-88
2023/06/20 05:47:06;;;;;;;3.80;2.63;;;22.60;58.90;;;;;;4987133;28;20061;-87
2023/06/20 05:49:33;;;;;;;4.30;3.03;;;22.60;58.80;;;;;;5021122;28;20140;-87
2023/06/20 05:52:00;;;;;;;4.18;2.80;;;22.60;58.90;;;;;;5003557;28;20444;-87
2023/06/20 05:54:27;;;;;;;3.78;2.45;;;22.60;58.90;;;;;;5002422;28;20071;-87
2023/06/20 05:56:55;;;;;;;3.50;2.45;;;22.60;58.90;;;;;;4990433;28;20049;-87
2023/06/20 05:59:22;;;;;;;4.50;2.95;;;22.70;58.90;;;;;;4997905;28;20410;-86
2023/06/20 06:01:49;;;;;;;4.25;2.70;;;22.70;58.90;;;;;;4988256;28;20049;-87
2023/06/20 06:04:16;;;;;;;5.88;3.08;;;22.70;58.90;;;;;;4981562;28;20056;-86
2023/06/20 06:06:44;;;;;;;5.93;3.38;;;22.80;59.60;;;;;;4978175;28;20058;-87
2023/06/20 06:09:11;;;;;;;4.15;3.13;;;22.70;59.00;;;;;;4976460;28;20100;-79
2023/06/20 06:11:39;;;;;;;4.63;3.38;;;22.80;59.10;;;;;;4973262;28;20050;-79
2023/06/20 06:14:06;;;;;;;5.35;3.20;;;22.80;59.10;;;;;;4993028;28;20130;-80
2023/06/20 06:16:33;;;;;;;4.43;3.08;;;22.90;58.90;;;;;;4995769;28;20048;-79
2023/06/20 06:19:02;;;;;;;4.45;3.58;;;23.10;58.80;;;;;;4984648;28;20054;-79
2023/06/20 06:21:29;;;;;;;4.57;3.55;;;23.10;58.70;;;;;;4993297;28;20124;-79
2023/06/20 06:23:57;;;;;;;5.78;3.67;;;23.20;58.80;;;;;;5026628;28;20517;-80
2023/06/20 06:26:24;;;;;;;8.73;3.72;;;23.30;58.60;;;;;;4978223;28;20050;-80
2023/06/20 06:28:51;;;;;;;3.90;2.90;;;23.50;58.50;;;;;;4992471;28;20046;-80
2023/06/20 06:31:29;;;;;;;4.70;3.50;;;23.60;58.40;;;;;;4960913;28;20050;-80
2023/06/20 06:33:57;;;;;;;4.13;2.63;;;23.70;58.30;;;;;;4995950;28;20065;-80
2023/06/20 06:36:31;;;;;;;4.82;3.15;;;23.80;58.20;;;;;;4998157;28;20129;-79
2023/06/20 06:38:58;;;;;;;5.18;2.70;;;23.90;58.10;;;;;;4992060;28;20526;-80
2023/06/20 06:41:26;;;;;;;4.97;3.70;;;24.00;58.10;;;;;;5000507;28;20149;-80
2023/06/20 06:43:53;;;;;;;5.60;4.05;;;24.20;58.00;;;;;;5014118;28;20057;-80
2023/06/20 06:46:21;;;;;;;5.10;3.42;;;24.20;57.80;;;;;;4983043;28;20054;-80
2023/06/20 06:48:49;;;;;;;4.28;2.95;;;24.30;57.90;;;;;;4946627;28;20070;-79
2023/06/20 06:51:16;;;;;;;5.38;3.35;;;24.20;57.90;;;;;;4986286;28;20042;-80
2023/06/20 06:53:43;;;;;;;5.25;3.70;;;24.20;58.00;;;;;;4997849;28;20044;-80
2023/06/20 06:56:11;;;;;;;4.10;2.72;;;24.30;58.20;;;;;;4992294;28;20056;-80
2023/06/20 06:58:37;;;;;;;4.57;3.55;;;24.20;58.20;;;;;;4984125;28;20108;-80
2023/06/20 07:01:05;;;;;;;4.80;3.20;;;24.40;58.20;;;;;;4986331;28;20545;-80
2023/06/20 07:03:32;;;;;;;5.53;4.30;;;24.40;58.10;;;;;;5001803;28;20137;-80
2023/06/20 07:06:00;;;;;;;4.30;2.97;;;24.50;58.10;;;;;;4979067;28;20062;-80
2023/06/20 07:08:27;;;;;;;5.95;4.00;;;24.60;58.00;;;;;;4989639;28;20065;-80
2023/06/20 07:10:54;;;;;;;4.72;3.55;;;24.80;57.90;;;;;;5002260;28;20522;-81
2023/06/20 07:13:24;;;;;;;4.90;3.20;;;24.90;57.80;;;;;;5005965;28;20046;-81
2023/06/20 07:15:51;;;;;;;4.60;3.20;;;24.90;57.80;;;;;;4983368;28;20509;-80
2023/06/20 07:18:18;;;;;;;3.95;3.00;;;24.90;57.70;;;;;;4980274;28;20088;-88
2023/06/20 07:20:45;;;;;;;4.65;3.30;;;25.10;57.60;;;;;;4983668;28;20045;-88
2023/06/20 07:23:12;;;;;;;4.35;3.33;;;25.30;57.40;;;;;;4993048;28;20038;-88
2023/06/20 07:25:39;;;;;;;4.15;3.28;;;25.30;57.30;;;;;;4987870;28;20056;-88
2023/06/20 07:28:06;;;;;;;4.80;3.15;;;25.30;57.40;;;;;;5003665;28;20037;-87
2023/06/20 07:30:33;;;;;;;3.88;2.92;;;25.20;57.60;;;;;;4980074;28;20129;-91
2023/06/20 07:33:01;;;;;;;4.63;3.42;;;25.20;57.80;;;;;;4990491;28;20049;-90
2023/06/20 07:35:30;;;;;;;4.47;3.25;;;25.20;57.80;;;;;;5000149;28;20045;-90
2023/06/20 07:37:57;;;;;;;4.60;3.03;;;25.30;57.70;;;;;;5019352;28;20057;-91
2023/06/20 07:40:24;;;;;;;4.55;3.28;;;25.40;57.60;;;;;;4982238;28;20443;-91
2023/06/20 07:42:52;;;;;;;3.88;2.85;;;25.60;57.50;;;;;;5015785;28;20057;-86
2023/06/20 07:45:19;;;;;;;4.43;3.13;;;25.90;57.20;;;;;;5015220;28;20060;-86
2023/06/20 07:47:46;;;;;;;4.80;3.22;;;26.20;56.80;;;;;;4993007;28;20042;-90
2023/06/20 07:50:13;;;;;;;4.25;2.80;;;26.50;56.40;;;;;;5010042;28;20045;-86
2023/06/20 07:52:40;;;;;;;4.05;2.67;;;26.60;56.40;;;;;;5011104;28;20042;-86
2023/06/20 07:55:08;;;;;;;3.47;2.45;;;26.50;56.50;;;;;;5011367;28;20045;-91
2023/06/20 07:57:53;;;;;;;4.82;3.00;;;26.50;56.70;;;;;;4991234;28;20113;-86
2023/06/20 08:00:21;;;;;;;3.70;2.50;;;26.40;56.90;;;;;;4990580;28;20045;-85
2023/06/20 08:02:48;;;;;;;3.88;2.25;;;26.40;56.90;;;;;;5022961;28;20045;-86
2023/06/20 08:05:15;;;;;;;4.57;2.40;;;26.50;56.90;;;;;;5022293;28;20045;-88
2023/06/20 08:07:42;;;;;;;4.70;2.55;;;26.60;56.90;;;;;;5016902;28;21083;-86
2023/06/20 08:10:10;;;;;;;3.67;2.45;;;26.70;56.80;;;;;;4983372;28;20401;-86
2023/06/20 08:12:38;;;;;;;3.33;2.33;;;26.80;56.70;;;;;;4983209;28;20060;-85
2023/06/20 08:15:06;;;;;;;3.70;2.25;;;26.90;56.60;;;;;;4986722;28;20498;-86
2023/06/20 08:17:33;;;;;;;4.18;2.92;;;27.00;56.40;;;;;;4998749;28;20124;-86
2023/06/20 08:20:00;;;;;;;4.43;2.72;;;27.20;56.40;;;;;;5015150;28;20081;-86
2023/06/20 08:22:27;;;;;;;2.85;2.22;;;27.20;56.30;;;;;;5018582;28;20538;-86
2023/06/20 08:24:54;;;;;;;4.03;2.88;;;27.20;56.40;;;;;;4999380;28;20046;-85
2023/06/20 08:27:21;;;;;;;3.55;2.25;;;27.30;56.40;;;;;;4997287;28;20049;-88
2023/06/20 08:29:48;;;;;;;3.13;1.88;;;27.30;56.30;;;;;;5017122;28;20086;-87
2023/06/20 08:32:15;;;;;;;3.83;2.40;;;27.30;56.30;;;;;;5021674;28;20049;-86
2023/06/20 08:34:42;;;;;;;3.50;2.25;;;27.30;56.40;;;;;;5021501;28;20044;-87
2023/06/20 08:37:10;;;;;;;2.80;1.75;;;27.30;56.50;;;;;;5022403;28;20053;-90
2023/06/20 08:39:40;;;;;;;2.78;1.95;;;27.40;56.40;;;;;;5015219;28;20054;-91
2023/06/20 08:42:07;;;;;;;3.00;1.92;;;27.50;56.20;;;;;;5000305;28;20046;-87
2023/06/20 08:44:34;;;;;;;2.65;1.70;;;27.60;56.10;;;;;;4987485;28;20053;-91
2023/06/20 08:47:21;;;;;;;2.60;1.67;;;27.80;56.00;;;;;;5004624;28;20512;-86
2023/06/20 08:49:50;;;;;;;3.17;1.48;;;27.90;55.70;;;;;;4999326;28;20111;-87
2023/06/20 08:52:24;;;;;;;2.38;1.58;;;28.00;55.60;;;;;;4999044;28;20042;-91
2023/06/20 08:54:52;;;;;;;2.30;1.52;;;28.00;55.50;;;;;;5005237;28;20045;-87
2023/06/20 08:57:21;;;;;;;2.40;1.42;;;28.10;55.40;;;;;;5003321;28;20052;-90
2023/06/20 08:59:48;;;;;;;2.15;1.20;;;28.10;55.30;;;;;;4999708;28;20042;-90
2023/06/20 09:02:18;;;;;;;3.13;1.67;;;28.30;55.30;;;;;;4982993;28;20486;-87
2023/06/20 09:04:59;;;;;;;3.08;1.85;;;28.30;55.70;;;;;;4981575;28;20474;-87
2023/06/20 09:07:34;;;;;;;2.03;1.40;;;28.40;54.90;;;;;;5013819;28;20494;-88
2023/06/20 09:10:02;;;;;;;2.28;1.25;;;28.50;54.70;;;;;;5008961;28;20037;-88
2023/06/20 09:12:43;;;;;;;2.40;1.50;;;28.60;54.50;;;;;;5007376;28;20139;-88
2023/06/20 09:15:19;;;;;;;3.40;2.20;;;28.70;54.40;;;;;;5015601;28;20404;-91
2023/06/20 09:17:50;;;;;;;2.53;1.58;;;28.70;54.20;;;;;;5028725;28;20094;-91
2023/06/20 09:20:18;;;;;;;2.67;1.38;;;28.80;54.20;;;;;;5021260;28;20053;-91
2023/06/20 09:22:45;;;;;;;2.95;1.80;;;28.80;54.10;;;;;;5021003;28;20132;-87
2023/06/20 09:25:18;;;;;;;3.13;2.25;;;28.90;54.10;;;;;;4994334;28;20096;-87
2023/06/20 09:27:48;;;;;;;3.20;2.05;;;29.00;54.10;;;;;;5002183;28;20122;-88
2023/06/20 09:30:15;;;;;;;3.70;2.15;;;29.00;54.00;;;;;;5011811;28;20095;-85
2023/06/20 09:32:42;;;;;;;3.08;1.77;;;29.10;54.00;;;;;;5007819;28;20049;-86
2023/06/20 09:35:15;;;;;;;2.45;1.35;;;29.00;54.00;;;;;;4996420;28;20046;-87
2023/06/20 09:37:48;;;;;;;2.42;1.40;;;29.00;54.00;;;;;;5028901;28;20087;-90
2023/06/20 09:40:16;;;;;;;2.72;1.65;;;28.90;54.20;;;;;;5037767;28;20048;-90
2023/06/20 09:42:45;;;;;;;3.35;1.95;;;29.00;54.10;;;;;;5021296;28;20095;-91
2023/06/20 09:45:14;;;;;;;3.35;2.08;;;29.00;54.00;;;;;;5037384;28;20091;-87
2023/06/20 09:47:42;;;;;;;3.45;1.98;;;29.10;53.90;;;;;;5011473;28;20041;-87
2023/06/20 09:50:16;;;;;;;3.15;2.17;;;29.20;53.90;;;;;;5001477;28;20042;-92
2023/06/20 09:52:47;;;;;;;2.10;1.50;;;29.30;53.80;;;;;;5017623;28;20046;-88
2023/06/20 09:55:15;;;;;;;2.38;1.48;;;29.30;53.80;;;;;;5004038;28;20461;-85
2023/06/20 09:57:49;;;;;;;3.30;1.48;;;29.40;53.60;;;;;;5017922;28;20072;-85
2023/06/20 10:00:17;;;;;;;2.55;1.85;;;29.50;53.70;;;;;;5049646;28;20056;-87
2023/06/20 10:02:46;;;;;;;3.45;1.80;;;29.60;53.50;;;;;;4999487;28;20119;-91
2023/06/20 10:05:20;;;;;;;2.92;2.05;;;29.80;53.40;;;;;;4981970;28;20064;-86
2023/06/20 10:07:49;;;;;;;3.00;2.08;;;29.90;53.10;;;;;;4999561;28;20100;-86
2023/06/20 10:10:18;;;;;;;3.92;2.53;;;29.80;53.30;;;;;;5017215;28;20041;-88
2023/06/20 10:12:46;;;;;;;3.60;2.42;;;29.90;53.30;;;;;;5002637;28;20140;-90
2023/06/20 10:15:14;;;;;;;3.30;2.17;;;30.00;53.30;;;;;;4996529;28;20449;-86
2023/06/20 10:17:48;;;;;;;2.83;2.03;;;30.00;53.10;;;;;;5019942;28;20041;-87
2023/06/20 10:20:37;;;;;;;3.33;2.38;;;30.00;53.00;;;;;;5007185;28;20050;-86
2023/06/20 10:23:08;;;;;;;2.58;1.80;;;30.00;53.10;;;;;;5030824;28;20048;-87
2023/06/20 10:25:51;;;;;;;2.30;1.65;;;30.10;53.10;;;;;;5007385;28;20107;-92
2023/06/20 10:28:22;;;;;;;2.70;1.73;;;30.30;52.80;;;;;;5010922;28;20057;-87
2023/06/20 10:30:50;;;;;;;2.13;1.20;;;30.30;52.50;;;;;;5016102;28;20048;-88
2023/06/20 10:33:24;;;;;;;2.30;1.27;;;30.40;52.60;;;;;;4996746;28;20128;-86
2023/06/20 10:36:01;;;;;;;3.22;1.20;;;30.50;52.40;;;;;;5005576;28;20389;-90
2023/06/20 10:38:30;;;;;;;3.20;1.60;;;30.60;52.30;;;;;;5016776;28;20048;-87
2023/06/20 10:41:16;;;;;;;1.55;1.10;;;30.60;52.20;;;;;;4982912;28;20049;-87
2023/06/20 10:43:48;;;;;;;2.30;1.30;;;30.80;52.10;;;;;;4998117;28;20046;-86
2023/06/20 10:46:16;;;;;;;2.03;1.08;;;30.90;51.90;;;;;;5015519;28;20052;-86
2023/06/20 10:48:44;;;;;;;2.47;1.45;;;31.00;51.70;;;;;;5033826;28;20069;-90
2023/06/20 10:51:12;;;;;;;2.25;1.38;;;31.10;51.60;;;;;;4999584;28;20041;-88
2023/06/20 10:53:39;;;;;;;3.15;1.30;;;31.10;51.30;;;;;;4996247;28;20054;-88
2023/06/20 10:56:06;;;;;;;1.90;1.27;;;31.20;51.20;;;;;;4985358;28;20053;-94
2023/06/20 10:58:34;;;;;;;1.88;1.20;;;31.40;51.00;;;;;;5004724;28;20144;-87
2023/06/20 11:01:01;;;;;;;2.05;1.13;;;31.50;50.70;;;;;;4977522;28;20076;-89
2023/06/20 11:03:29;;;;;;;1.90;1.20;;;31.70;50.60;;;;;;4970379;28;20046;-90
2023/06/20 11:05:58;;;;;;;1.83;1.15;;;31.90;50.40;;;;;;4995937;28;20465;-90
2023/06/20 11:08:26;;;;;;;1.90;1.00;;;32.00;50.20;;;;;;4996103;28;20053;-90
2023/06/20 11:10:54;;;;;;;2.28;1.08;;;32.00;50.20;;;;;;5017885;28;20071;-89
2023/06/20 11:13:23;;;;;;;1.77;1.10;;;32.10;50.10;;;;;;5014721;28;20053;-86
2023/06/20 11:15:50;;;;;;;1.63;0.95;;;32.10;49.90;;;;;;4997656;28;20056;-81
2023/06/20 11:18:18;;;;;;;1.20;0.60;;;32.10;50.00;;;;;;5009604;28;20046;-80
2023/06/20 11:20:45;;;;;;;1.10;0.70;;;32.00;50.00;;;;;;5006733;28;20140;-81
2023/06/20 11:23:12;;;;;;;1.35;0.80;;;31.90;50.10;;;;;;4985227;28;20048;-81
2023/06/20 11:25:42;;;;;;;2.10;1.17;;;31.80;50.20;;;;;;5021781;28;20040;-87
2023/06/20 11:28:14;;;;;;;1.45;0.85;;;31.70;50.00;;;;;;5004690;28;20152;-80
2023/06/20 11:30:43;;;;;;;1.88;0.95;;;31.70;49.90;;;;;;5001127;28;20394;-87
2023/06/20 11:33:13;;;;;;;1.60;1.02;;;31.90;49.80;;;;;;5004078;28;20099;-81
2023/06/20 11:35:46;;;;;;;1.20;0.63;;;32.00;49.50;;;;;;5032799;28;20136;-87
2023/06/20 11:38:40;;;;;;;1.90;1.02;;;32.00;49.40;;;;;;5033007;28;20049;-82
2023/06/20 11:41:08;;;;;;;1.35;0.80;;;32.10;49.40;;;;;;5030565;28;20067;-88
2023/06/20 11:43:54;;;;;;;1.75;0.98;;;32.20;49.20;;;;;;5032597;28;20055;-82
2023/06/20 11:46:21;;;;;;;1.58;0.80;;;32.40;49.00;;;;;;5026649;28;20072;-82
2023/06/20 11:48:50;;;;;;;1.98;1.00;;;32.30;48.80;;;;;;5010376;28;20160;-81
2023/06/20 11:51:23;;;;;;;1.30;0.70;;;32.30;48.80;;;;;;4994809;28;20527;-82
2023/06/20 11:54:19;;;;;;;1.60;0.82;;;32.50;48.60;;;;;;4999462;28;20135;-82
2023/06/20 11:56:50;;;;;;;1.15;0.75;;;32.70;48.20;;;;;;4989832;28;20490;-84
2023/06/20 11:59:24;;;;;;;;;;;32.90;47.90;;;;;;4995270;28;20048;-81
2023/06/20 12:01:52;;;;;;;1.23;0.77;;;33.10;47.80;;;;;;4989295;28;19925;-81
2023/06/20 12:04:21;;;;;;;1.48;0.77;;;33.40;47.60;;;;;;5008201;28;20394;-81
2023/06/20 12:06:52;;;;;;;0.98;0.60;;;33.60;47.20;;;;;;5003262;28;20148;-83
2023/06/20 12:09:23;;;;;;;1.10;0.55;;;33.80;46.80;;;;;;5002481;28;20123;-82
2023/06/20 12:11:52;;;;;;;1.52;0.90;;;34.10;46.60;;;;;;4995914;28;20057;-80
2023/06/20 12:14:24;;;;;;;1.40;0.65;;;34.40;46.20;;;;;;5000695;28;20505;-88
2023/06/20 12:16:51;;;;;;;;;;;34.60;45.90;;;;;;5027364;28;20056;-87
2023/06/20 12:19:19;;;;;;;1.63;1.00;;;34.80;45.90;;;;;;4984812;28;19921;-80
2023/06/20 12:21:47;;;;;;;1.45;0.93;;;35.00;45.70;;;;;;5007852;28;20046;-80
2023/06/20 12:24:15;;;;;;;1.30;0.70;;;35.30;45.40;;;;;;5007265;28;20490;-81
2023/06/20 12:26:46;;;;;;;0.98;0.70;;;35.50;45.00;;;;;;4984693;28;20046;-81
2023/06/20 12:29:14;;;;;;;1.73;1.00;;;35.70;44.60;;;;;;5014091;28;20099;-86
2023/06/20 12:31:41;;;;;;;1.25;0.80;;;35.80;44.50;;;;;;5000206;28;20042;-84
2023/06/20 12:34:08;;;;;;;1.20;0.70;;;36.10;44.40;;;;;;4994889;28;20041;-85
2023/06/20 12:36:35;;;;;;;1.48;0.70;;;36.30;44.20;;;;;;5000460;28;20069;-84
2023/06/20 12:39:03;;;;;;;1.38;0.80;;;36.50;43.90;;;;;;4989558;28;20117;-88
2023/06/20 12:41:35;;;;;;;2.15;0.93;;;36.70;43.80;;;;;;4989333;28;20061;-83
2023/06/20 12:44:03;;;;;;;1.45;0.80;;;36.80;43.50;;;;;;5033552;28;20048;-89
2023/06/20 12:46:35;;;;;;;1.35;0.90;;;36.90;43.40;;;;;;5001867;28;20053;-84
2023/06/20 12:49:02;;;;;;;1.73;0.80;;;37.10;43.10;;;;;;5023376;28;20073;-83
2023/06/20 12:51:29;;;;;;;1.38;0.85;;;37.10;42.80;;;;;;5017506;28;20486;-84
2023/06/20 12:53:56;;;;;;;1.50;0.90;;;37.10;42.60;;;;;;5024380;28;20049;-86
2023/06/20 12:56:23;;;;;;;1.40;0.90;;;37.40;42.50;;;;;;4996064;28;20128;-85
2023/06/20 12:58:50;;;;;;;1.75;1.10;;;37.50;42.20;;;;;;5004656;28;20403;-82
2023/06/20 13:01:20;;;;;;;0.88;0.60;;;37.80;42.00;;;;;;4995537;28;20042;-83